sensor_id;sensor_type;location;lat;lon;timestamp;P1;durP1;ratioP1;P2;durP2;ratioP2
68921;SDS011;55959;51.244;5.724;2023-08-21T00:02:24;2.50;;;1.00;;
68921;SDS011;55959;51.244;5.724;2023-08-21T00:04:52;1.70;;;0.82;;
68921;SDS011;55959;51.244;5.724;2023-08-21T00:07:19;1.45;;;0.75;;
68921;SDS011;55959;51.244;5.724;2023-08-21T00:09:45;3.53;;;1.10;;
68921;SDS011;55959;51.244;5.724;2023-08-21T00:12:11;2.08;;;1.33;;
68921;SDS011;55959;51.244;5.724;2023-08-21T00:14:37;3.25;;;0.90;;
68921;SDS011;55959;51.244;5.724;2023-08-21T00:17:03;2.05;;;0.80;;
68921;SDS011;55959;51.244;5.724;2023-08-21T00:19:29;1.75;;;0.80;;
68921;SDS011;55959;51.244;5.724;2023-08-21T00:21:55;2.55;;;1.15;;
68921;SDS011;55959;51.244;5.724;2023-08-21T00:24:21;1.95;;;0.82;;
68921;SDS011;55959;51.244;5.724;2023-08-21T00:26:47;1.83;;;1.00;;
68921;SDS011;55959;51.244;5.724;2023-08-21T00:29:12;3.53;;;1.50;;
68921;SDS011;55959;51.244;5.724;2023-08-21T00:31:38;2.55;;;0.93;;
68921;SDS011;55959;51.244;5.724;2023-08-21T00:34:04;6.10;;;1.75;;
68921;SDS011;55959;51.244;5.724;2023-08-21T00:36:31;1.75;;;0.98;;
68921;SDS011;55959;51.244;5.724;2023-08-21T00:38:56;2.17;;;1.20;;
68921;SDS011;55959;51.244;5.724;2023-08-21T00:41:22;1.98;;;0.90;;
68921;SDS011;55959;51.244;5.724;2023-08-21T00:43:48;2.67;;;1.02;;
68921;SDS011;55959;51.244;5.724;2023-08-21T00:46:14;1.92;;;1.13;;
68921;SDS011;55959;51.244;5.724;2023-08-21T00:48:40;2.83;;;1.10;;
68921;SDS011;55959;51.244;5.724;2023-08-21T00:51:07;2.08;;;1.00;;
68921;SDS011;55959;51.244;5.724;2023-08-21T00:53:33;3.22;;;0.93;;
68921;SDS011;55959;51.244;5.724;2023-08-21T00:55:59;2.75;;;1.23;;
68921;SDS011;55959;51.244;5.724;2023-08-21T00:58:25;2.00;;;0.80;;
68921;SDS011;55959;51.244;5.724;2023-08-21T01:00:51;2.50;;;1.23;;
68921;SDS011;55959;51.244;5.724;2023-08-21T01:03:17;2.35;;;1.35;;
68921;SDS011;55959;51.244;5.724;2023-08-21T01:05:43;1.42;;;1.00;;
68921;SDS011;55959;51.244;5.724;2023-08-21T01:08:10;4.25;;;1.73;;
68921;SDS011;55959;51.244;5.724;2023-08-21T01:10:50;2.17;;;1.33;;
68921;SDS011;55959;51.244;5.724;2023-08-21T01:16:42;1.83;;;1.20;;
68921;SDS011;55959;51.244;5.724;2023-08-21T01:19:17;2.35;;;1.13;;
68921;SDS011;55959;51.244;5.724;2023-08-21T01:21:53;1.88;;;1.10;;
68921;SDS011;55959;51.244;5.724;2023-08-21T01:24:19;1.73;;;1.00;;
68921;SDS011;55959;51.244;5.724;2023-08-21T01:26:45;2.25;;;1.10;;
68921;SDS011;55959;51.244;5.724;2023-08-21T01:29:11;3.17;;;1.23;;
68921;SDS011;55959;51.244;5.724;2023-08-21T01:31:37;2.72;;;1.10;;
68921;SDS011;55959;51.244;5.724;2023-08-21T01:34:09;3.15;;;1.10;;
68921;SDS011;55959;51.244;5.724;2023-08-21T01:36:37;2.85;;;1.10;;
68921;SDS011;55959;51.244;5.724;2023-08-21T01:39:03;1.77;;;1.08;;
68921;SDS011;55959;51.244;5.724;2023-08-21T01:41:30;2.85;;;0.90;;
68921;SDS011;55959;51.244;5.724;2023-08-21T01:43:55;3.22;;;1.17;;
68921;SDS011;55959;51.244;5.724;2023-08-21T01:46:21;2.65;;;1.35;;
68921;SDS011;55959;51.244;5.724;2023-08-21T01:48:47;2.92;;;1.25;;
68921;SDS011;55959;51.244;5.724;2023-08-21T01:51:12;2.53;;;1.20;;
68921;SDS011;55959;51.244;5.724;2023-08-21T01:53:38;3.13;;;1.17;;
68921;SDS011;55959;51.244;5.724;2023-08-21T01:56:04;2.70;;;1.17;;
68921;SDS011;55959;51.244;5.724;2023-08-21T01:58:30;2.90;;;1.30;;
68921;SDS011;55959;51.244;5.724;2023-08-21T02:00:55;2.50;;;1.50;;
68921;SDS011;55959;51.244;5.724;2023-08-21T02:03:21;2.15;;;1.40;;
68921;SDS011;55959;51.244;5.724;2023-08-21T02:05:49;2.65;;;1.60;;
68921;SDS011;55959;51.244;5.724;2023-08-21T02:08:16;2.58;;;1.40;;
68921;SDS011;55959;51.244;5.724;2023-08-21T02:10:51;2.97;;;1.80;;
68921;SDS011;55959;51.244;5.724;2023-08-21T02:13:18;2.60;;;1.50;;
68921;SDS011;55959;51.244;5.724;2023-08-21T02:15:45;2.03;;;1.52;;
68921;SDS011;55959;51.244;5.724;2023-08-21T02:18:11;1.83;;;1.55;;
68921;SDS011;55959;51.244;5.724;2023-08-21T02:20:37;3.05;;;1.80;;
68921;SDS011;55959;51.244;5.724;2023-08-21T02:23:03;2.67;;;1.50;;
68921;SDS011;55959;51.244;5.724;2023-08-21T02:25:29;2.80;;;1.55;;
68921;SDS011;55959;51.244;5.724;2023-08-21T02:27:56;3.75;;;1.90;;
68921;SDS011;55959;51.244;5.724;2023-08-21T02:30:24;2.22;;;1.60;;
68921;SDS011;55959;51.244;5.724;2023-08-21T02:32:51;4.68;;;1.70;;
68921;SDS011;55959;51.244;5.724;2023-08-21T02:35:18;2.38;;;1.40;;
68921;SDS011;55959;51.244;5.724;2023-08-21T02:37:44;2.47;;;1.60;;
68921;SDS011;55959;51.244;5.724;2023-08-21T02:40:10;3.00;;;1.70;;
68921;SDS011;55959;51.244;5.724;2023-08-21T02:42:35;2.30;;;1.77;;
68921;SDS011;55959;51.244;5.724;2023-08-21T02:45:01;2.85;;;1.48;;
68921;SDS011;55959;51.244;5.724;2023-08-21T02:47:33;3.65;;;1.70;;
68921;SDS011;55959;51.244;5.724;2023-08-21T02:50:07;3.05;;;1.60;;
68921;SDS011;55959;51.244;5.724;2023-08-21T02:52:34;3.50;;;1.50;;
68921;SDS011;55959;51.244;5.724;2023-08-21T02:55:02;2.10;;;1.52;;
68921;SDS011;55959;51.244;5.724;2023-08-21T02:57:28;1.95;;;1.40;;
68921;SDS011;55959;51.244;5.724;2023-08-21T02:59:54;3.08;;;1.88;;
68921;SDS011;55959;51.244;5.724;2023-08-21T03:02:21;3.75;;;1.40;;
68921;SDS011;55959;51.244;5.724;2023-08-21T03:04:47;2.67;;;1.60;;
68921;SDS011;55959;51.244;5.724;2023-08-21T03:07:14;3.67;;;1.88;;
68921;SDS011;55959;51.244;5.724;2023-08-21T03:09:41;2.30;;;1.42;;
68921;SDS011;55959;51.244;5.724;2023-08-21T03:12:07;3.83;;;1.50;;
68921;SDS011;55959;51.244;5.724;2023-08-21T03:14:33;1.85;;;1.35;;
68921;SDS011;55959;51.244;5.724;2023-08-21T03:16:59;3.83;;;1.60;;
68921;SDS011;55959;51.244;5.724;2023-08-21T03:19:25;1.70;;;1.23;;
68921;SDS011;55959;51.244;5.724;2023-08-21T03:21:51;3.08;;;1.60;;
68921;SDS011;55959;51.244;5.724;2023-08-21T03:24:17;2.40;;;1.20;;
68921;SDS011;55959;51.244;5.724;2023-08-21T03:26:42;3.63;;;1.70;;
68921;SDS011;55959;51.244;5.724;2023-08-21T03:29:08;2.53;;;1.20;;
68921;SDS011;55959;51.244;5.724;2023-08-21T03:31:34;2.35;;;1.42;;
68921;SDS011;55959;51.244;5.724;2023-08-21T03:34:00;2.10;;;1.02;;
68921;SDS011;55959;51.244;5.724;2023-08-21T03:36:26;3.95;;;1.63;;
68921;SDS011;55959;51.244;5.724;2023-08-21T03:39:01;3.28;;;1.45;;
68921;SDS011;55959;51.244;5.724;2023-08-21T03:41:31;2.47;;;1.50;;
68921;SDS011;55959;51.244;5.724;2023-08-21T03:43:58;2.03;;;1.30;;
68921;SDS011;55959;51.244;5.724;2023-08-21T03:46:23;1.92;;;1.20;;
68921;SDS011;55959;51.244;5.724;2023-08-21T03:48:49;1.75;;;1.10;;
68921;SDS011;55959;51.244;5.724;2023-08-21T03:51:15;1.85;;;1.10;;
68921;SDS011;55959;51.244;5.724;2023-08-21T03:53:41;3.38;;;1.38;;
68921;SDS011;55959;51.244;5.724;2023-08-21T03:56:07;2.90;;;1.58;;
68921;SDS011;55959;51.244;5.724;2023-08-21T03:58:33;1.92;;;1.05;;
68921;SDS011;55959;51.244;5.724;2023-08-21T04:00:59;2.10;;;1.20;;
68921;SDS011;55959;51.244;5.724;2023-08-21T04:03:24;1.58;;;1.02;;
68921;SDS011;55959;51.244;5.724;2023-08-21T04:05:52;1.88;;;1.13;;
68921;SDS011;55959;51.244;5.724;2023-08-21T04:08:20;2.00;;;1.20;;
68921;SDS011;55959;51.244;5.724;2023-08-21T04:10:46;2.92;;;1.50;;
68921;SDS011;55959;51.244;5.724;2023-08-21T04:13:12;2.92;;;1.50;;
68921;SDS011;55959;51.244;5.724;2023-08-21T04:15:37;4.82;;;1.80;;
68921;SDS011;55959;51.244;5.724;2023-08-21T04:18:03;2.35;;;1.27;;
68921;SDS011;55959;51.244;5.724;2023-08-21T04:20:30;2.55;;;0.88;;
68921;SDS011;55959;51.244;5.724;2023-08-21T04:22:56;2.53;;;1.42;;
68921;SDS011;55959;51.244;5.724;2023-08-21T04:25:21;2.17;;;1.17;;
68921;SDS011;55959;51.244;5.724;2023-08-21T04:27:47;1.88;;;1.20;;
68921;SDS011;55959;51.244;5.724;2023-08-21T04:30:13;2.65;;;1.50;;
68921;SDS011;55959;51.244;5.724;2023-08-21T04:32:39;1.55;;;1.00;;
68921;SDS011;55959;51.244;5.724;2023-08-21T04:35:05;2.58;;;1.27;;
68921;SDS011;55959;51.244;5.724;2023-08-21T04:37:33;4.13;;;1.52;;
68921;SDS011;55959;51.244;5.724;2023-08-21T04:39:58;2.40;;;1.17;;
68921;SDS011;55959;51.244;5.724;2023-08-21T04:42:24;2.38;;;1.13;;
68921;SDS011;55959;51.244;5.724;2023-08-21T04:44:50;2.42;;;1.30;;
68921;SDS011;55959;51.244;5.724;2023-08-21T04:47:20;2.88;;;1.50;;
68921;SDS011;55959;51.244;5.724;2023-08-21T04:49:51;3.05;;;1.33;;
68921;SDS011;55959;51.244;5.724;2023-08-21T04:52:18;2.35;;;1.00;;
68921;SDS011;55959;51.244;5.724;2023-08-21T04:54:47;4.03;;;1.90;;
68921;SDS011;55959;51.244;5.724;2023-08-21T04:57:14;1.35;;;1.20;;
68921;SDS011;55959;51.244;5.724;2023-08-21T04:59:41;2.45;;;1.33;;
68921;SDS011;55959;51.244;5.724;2023-08-21T05:02:06;1.80;;;1.10;;
68921;SDS011;55959;51.244;5.724;2023-08-21T05:04:32;4.00;;;1.35;;
68921;SDS011;55959;51.244;5.724;2023-08-21T05:07:00;2.45;;;1.17;;
68921;SDS011;55959;51.244;5.724;2023-08-21T05:09:26;1.60;;;1.13;;
68921;SDS011;55959;51.244;5.724;2023-08-21T05:11:52;3.13;;;1.50;;
68921;SDS011;55959;51.244;5.724;2023-08-21T05:14:19;2.78;;;1.30;;
68921;SDS011;55959;51.244;5.724;2023-08-21T05:16:45;3.65;;;1.70;;
68921;SDS011;55959;51.244;5.724;2023-08-21T05:19:11;3.97;;;1.70;;
68921;SDS011;55959;51.244;5.724;2023-08-21T05:21:39;3.38;;;1.10;;
68921;SDS011;55959;51.244;5.724;2023-08-21T05:24:05;3.90;;;1.60;;
68921;SDS011;55959;51.244;5.724;2023-08-21T05:26:31;2.83;;;1.50;;
68921;SDS011;55959;51.244;5.724;2023-08-21T05:28:56;2.60;;;1.30;;
68921;SDS011;55959;51.244;5.724;2023-08-21T05:31:22;2.42;;;1.48;;
68921;SDS011;55959;51.244;5.724;2023-08-21T05:33:48;2.65;;;1.40;;
68921;SDS011;55959;51.244;5.724;2023-08-21T05:36:14;2.83;;;1.52;;
68921;SDS011;55959;51.244;5.724;2023-08-21T05:38:39;2.00;;;1.23;;
68921;SDS011;55959;51.244;5.724;2023-08-21T05:41:05;2.00;;;1.48;;
68921;SDS011;55959;51.244;5.724;2023-08-21T05:43:31;3.70;;;1.60;;
68921;SDS011;55959;51.244;5.724;2023-08-21T05:45:59;2.25;;;1.27;;
68921;SDS011;55959;51.244;5.724;2023-08-21T05:48:25;3.20;;;1.40;;
68921;SDS011;55959;51.244;5.724;2023-08-21T05:50:51;2.17;;;1.48;;
68921;SDS011;55959;51.244;5.724;2023-08-21T05:53:17;3.80;;;1.60;;
68921;SDS011;55959;51.244;5.724;2023-08-21T05:55:44;3.10;;;1.60;;
68921;SDS011;55959;51.244;5.724;2023-08-21T05:58:10;2.85;;;1.80;;
68921;SDS011;55959;51.244;5.724;2023-08-21T06:00:37;1.98;;;1.77;;
68921;SDS011;55959;51.244;5.724;2023-08-21T06:03:04;3.55;;;1.90;;
68921;SDS011;55959;51.244;5.724;2023-08-21T06:05:30;1.80;;;1.60;;
68921;SDS011;55959;51.244;5.724;2023-08-21T06:07:56;2.63;;;1.70;;
68921;SDS011;55959;51.244;5.724;2023-08-21T06:10:22;2.75;;;1.73;;
68921;SDS011;55959;51.244;5.724;2023-08-21T06:12:47;3.03;;;1.95;;
68921;SDS011;55959;51.244;5.724;2023-08-21T06:15:13;2.05;;;1.50;;
68921;SDS011;55959;51.244;5.724;2023-08-21T06:17:39;4.30;;;2.10;;
68921;SDS011;55959;51.244;5.724;2023-08-21T06:20:07;2.63;;;1.75;;
68921;SDS011;55959;51.244;5.724;2023-08-21T06:22:38;2.83;;;1.50;;
68921;SDS011;55959;51.244;5.724;2023-08-21T06:25:04;3.35;;;2.00;;
68921;SDS011;55959;51.244;5.724;2023-08-21T06:27:30;2.85;;;1.77;;
68921;SDS011;55959;51.244;5.724;2023-08-21T06:29:56;4.13;;;1.83;;
68921;SDS011;55959;51.244;5.724;2023-08-21T06:32:22;2.47;;;2.10;;
68921;SDS011;55959;51.244;5.724;2023-08-21T06:34:48;2.85;;;2.10;;
68921;SDS011;55959;51.244;5.724;2023-08-21T06:37:17;3.28;;;2.17;;
68921;SDS011;55959;51.244;5.724;2023-08-21T06:39:43;2.75;;;1.75;;
68921;SDS011;55959;51.244;5.724;2023-08-21T06:42:09;4.43;;;2.05;;
68921;SDS011;55959;51.244;5.724;2023-08-21T06:44:35;3.42;;;1.60;;
68921;SDS011;55959;51.244;5.724;2023-08-21T06:47:00;2.53;;;1.60;;
68921;SDS011;55959;51.244;5.724;2023-08-21T06:49:26;1.88;;;1.65;;
68921;SDS011;55959;51.244;5.724;2023-08-21T06:51:52;2.65;;;1.90;;
68921;SDS011;55959;51.244;5.724;2023-08-21T06:54:18;5.10;;;2.35;;
68921;SDS011;55959;51.244;5.724;2023-08-21T06:56:44;2.80;;;2.08;;
68921;SDS011;55959;51.244;5.724;2023-08-21T06:59:09;2.65;;;2.00;;
68921;SDS011;55959;51.244;5.724;2023-08-21T07:01:35;3.40;;;2.20;;
68921;SDS011;55959;51.244;5.724;2023-08-21T07:04:01;5.32;;;2.95;;
68921;SDS011;55959;51.244;5.724;2023-08-21T07:06:27;3.85;;;2.30;;
68921;SDS011;55959;51.244;5.724;2023-08-21T07:08:55;3.30;;;2.30;;
68921;SDS011;55959;51.244;5.724;2023-08-21T07:11:20;4.57;;;2.45;;
68921;SDS011;55959;51.244;5.724;2023-08-21T07:13:47;3.13;;;2.35;;
68921;SDS011;55959;51.244;5.724;2023-08-21T07:16:13;4.72;;;2.55;;
68921;SDS011;55959;51.244;5.724;2023-08-21T07:18:39;4.38;;;2.83;;
68921;SDS011;55959;51.244;5.724;2023-08-21T07:21:05;3.65;;;2.60;;
68921;SDS011;55959;51.244;5.724;2023-08-21T07:23:31;6.10;;;2.65;;
68921;SDS011;55959;51.244;5.724;2023-08-21T07:25:58;4.20;;;2.95;;
68921;SDS011;55959;51.244;5.724;2023-08-21T07:28:24;4.30;;;2.70;;
68921;SDS011;55959;51.244;5.724;2023-08-21T07:30:56;4.05;;;2.80;;
68921;SDS011;55959;51.244;5.724;2023-08-21T07:33:23;4.07;;;2.63;;
68921;SDS011;55959;51.244;5.724;2023-08-21T07:35:56;4.10;;;3.05;;
68921;SDS011;55959;51.244;5.724;2023-08-21T07:38:27;4.55;;;2.75;;
68921;SDS011;55959;51.244;5.724;2023-08-21T07:41:03;4.20;;;2.60;;
68921;SDS011;55959;51.244;5.724;2023-08-21T07:43:31;2.95;;;2.50;;
68921;SDS011;55959;51.244;5.724;2023-08-21T07:45:56;5.20;;;2.88;;
68921;SDS011;55959;51.244;5.724;2023-08-21T07:48:22;4.70;;;2.80;;
68921;SDS011;55959;51.244;5.724;2023-08-21T07:50:51;4.65;;;2.38;;
68921;SDS011;55959;51.244;5.724;2023-08-21T07:53:20;3.88;;;2.67;;
68921;SDS011;55959;51.244;5.724;2023-08-21T07:55:47;2.78;;;2.15;;
68921;SDS011;55959;51.244;5.724;2023-08-21T07:58:12;2.88;;;2.33;;
68921;SDS011;55959;51.244;5.724;2023-08-21T08:00:38;3.92;;;2.60;;
68921;SDS011;55959;51.244;5.724;2023-08-21T08:03:04;2.97;;;2.10;;
68921;SDS011;55959;51.244;5.724;2023-08-21T08:05:34;3.53;;;1.90;;
68921;SDS011;55959;51.244;5.724;2023-08-21T08:08:00;3.67;;;2.53;;
68921;SDS011;55959;51.244;5.724;2023-08-21T08:10:26;4.10;;;3.00;;
68921;SDS011;55959;51.244;5.724;2023-08-21T08:12:51;4.18;;;2.80;;
68921;SDS011;55959;51.244;5.724;2023-08-21T08:15:18;3.63;;;2.53;;
68921;SDS011;55959;51.244;5.724;2023-08-21T08:17:44;3.25;;;2.13;;
68921;SDS011;55959;51.244;5.724;2023-08-21T08:20:11;4.20;;;2.55;;
68921;SDS011;55959;51.244;5.724;2023-08-21T08:22:39;3.22;;;2.67;;
68921;SDS011;55959;51.244;5.724;2023-08-21T08:25:06;4.88;;;2.75;;
68921;SDS011;55959;51.244;5.724;2023-08-21T08:27:32;5.47;;;2.65;;
68921;SDS011;55959;51.244;5.724;2023-08-21T08:29:58;5.80;;;4.25;;
68921;SDS011;55959;51.244;5.724;2023-08-21T08:32:24;5.28;;;3.17;;
68921;SDS011;55959;51.244;5.724;2023-08-21T08:34:51;4.47;;;2.10;;
68921;SDS011;55959;51.244;5.724;2023-08-21T08:37:18;2.90;;;2.50;;
68921;SDS011;55959;51.244;5.724;2023-08-21T08:39:46;2.88;;;2.22;;
68921;SDS011;55959;51.244;5.724;2023-08-21T08:42:12;5.15;;;2.58;;
68921;SDS011;55959;51.244;5.724;2023-08-21T08:44:39;2.95;;;1.80;;
68921;SDS011;55959;51.244;5.724;2023-08-21T08:47:09;2.90;;;1.75;;
68921;SDS011;55959;51.244;5.724;2023-08-21T08:49:40;3.63;;;2.03;;
68921;SDS011;55959;51.244;5.724;2023-08-21T08:52:06;2.92;;;2.20;;
68921;SDS011;55959;51.244;5.724;2023-08-21T08:54:32;2.58;;;1.30;;
68921;SDS011;55959;51.244;5.724;2023-08-21T08:57:00;2.88;;;1.40;;
68921;SDS011;55959;51.244;5.724;2023-08-21T08:59:29;2.90;;;1.60;;
68921;SDS011;55959;51.244;5.724;2023-08-21T09:01:56;3.03;;;2.00;;
68921;SDS011;55959;51.244;5.724;2023-08-21T09:04:22;3.08;;;1.52;;
68921;SDS011;55959;51.244;5.724;2023-08-21T09:06:47;3.45;;;1.90;;
68921;SDS011;55959;51.244;5.724;2023-08-21T09:09:13;3.63;;;1.80;;
68921;SDS011;55959;51.244;5.724;2023-08-21T09:11:42;3.97;;;1.48;;
68921;SDS011;55959;51.244;5.724;2023-08-21T09:14:09;4.35;;;2.83;;
68921;SDS011;55959;51.244;5.724;2023-08-21T09:16:36;3.25;;;1.88;;
68921;SDS011;55959;51.244;5.724;2023-08-21T09:19:02;3.05;;;1.90;;
68921;SDS011;55959;51.244;5.724;2023-08-21T09:21:27;2.20;;;1.52;;
68921;SDS011;55959;51.244;5.724;2023-08-21T09:24:00;2.78;;;1.50;;
68921;SDS011;55959;51.244;5.724;2023-08-21T09:26:30;3.28;;;1.50;;
68921;SDS011;55959;51.244;5.724;2023-08-21T09:29:01;3.25;;;1.63;;
68921;SDS011;55959;51.244;5.724;2023-08-21T09:31:31;5.07;;;2.15;;
68921;SDS011;55959;51.244;5.724;2023-08-21T09:34:01;3.00;;;2.17;;
68921;SDS011;55959;51.244;5.724;2023-08-21T09:36:31;3.70;;;1.65;;
68921;SDS011;55959;51.244;5.724;2023-08-21T09:38:58;3.30;;;1.73;;
68921;SDS011;55959;51.244;5.724;2023-08-21T09:41:25;4.88;;;2.08;;
68921;SDS011;55959;51.244;5.724;2023-08-21T09:43:51;3.03;;;1.25;;
68921;SDS011;55959;51.244;5.724;2023-08-21T09:46:21;3.63;;;1.05;;
68921;SDS011;55959;51.244;5.724;2023-08-21T09:48:49;1.92;;;0.90;;
68921;SDS011;55959;51.244;5.724;2023-08-21T09:51:17;2.97;;;1.23;;
68921;SDS011;55959;51.244;5.724;2023-08-21T09:53:44;3.17;;;1.13;;
68921;SDS011;55959;51.244;5.724;2023-08-21T09:56:11;2.78;;;1.00;;
68921;SDS011;55959;51.244;5.724;2023-08-21T09:58:37;2.75;;;0.77;;
68921;SDS011;55959;51.244;5.724;2023-08-21T10:01:07;3.15;;;1.27;;
68921;SDS011;55959;51.244;5.724;2023-08-21T10:03:40;1.45;;;0.77;;
68921;SDS011;55959;51.244;5.724;2023-08-21T10:06:10;3.72;;;1.20;;
68921;SDS011;55959;51.244;5.724;2023-08-21T10:08:37;2.80;;;1.30;;
68921;SDS011;55959;51.244;5.724;2023-08-21T10:11:07;3.42;;;0.90;;
68921;SDS011;55959;51.244;5.724;2023-08-21T10:13:34;2.38;;;0.90;;
68921;SDS011;55959;51.244;5.724;2023-08-21T10:16:03;2.22;;;0.98;;
68921;SDS011;55959;51.244;5.724;2023-08-21T10:18:31;2.80;;;1.20;;
68921;SDS011;55959;51.244;5.724;2023-08-21T10:21:12;2.67;;;1.00;;
68921;SDS011;55959;51.244;5.724;2023-08-21T10:23:41;2.53;;;0.90;;
68921;SDS011;55959;51.244;5.724;2023-08-21T10:26:10;2.35;;;0.90;;
68921;SDS011;55959;51.244;5.724;2023-08-21T10:28:41;2.28;;;0.77;;
68921;SDS011;55959;51.244;5.724;2023-08-21T10:31:28;1.55;;;1.10;;
68921;SDS011;55959;51.244;5.724;2023-08-21T10:34:05;2.20;;;0.80;;
68921;SDS011;55959;51.244;5.724;2023-08-21T10:39:17;3.45;;;1.00;;
68921;SDS011;55959;51.244;5.724;2023-08-21T10:41:58;1.58;;;0.80;;
68921;SDS011;55959;51.244;5.724;2023-08-21T10:47:17;2.72;;;1.15;;
68921;SDS011;55959;51.244;5.724;2023-08-21T10:49:55;3.47;;;1.05;;
68921;SDS011;55959;51.244;5.724;2023-08-21T10:52:23;1.90;;;0.90;;
68921;SDS011;55959;51.244;5.724;2023-08-21T10:54:56;2.83;;;1.08;;
68921;SDS011;55959;51.244;5.724;2023-08-21T10:57:24;3.47;;;1.05;;
68921;SDS011;55959;51.244;5.724;2023-08-21T11:02:21;1.85;;;0.90;;
68921;SDS011;55959;51.244;5.724;2023-08-21T11:04:53;2.78;;;1.00;;
68921;SDS011;55959;51.244;5.724;2023-08-21T11:10:13;2.38;;;1.00;;
68921;SDS011;55959;51.244;5.724;2023-08-21T11:12:56;2.83;;;1.00;;
68921;SDS011;55959;51.244;5.724;2023-08-21T11:15:28;3.78;;;1.25;;
68921;SDS011;55959;51.244;5.724;2023-08-21T11:17:58;2.95;;;1.33;;
68921;SDS011;55959;51.244;5.724;2023-08-21T11:20:33;2.50;;;0.98;;
68921;SDS011;55959;51.244;5.724;2023-08-21T11:23:01;2.95;;;1.20;;
68921;SDS011;55959;51.244;5.724;2023-08-21T11:25:32;4.35;;;1.42;;
68921;SDS011;55959;51.244;5.724;2023-08-21T11:27:58;3.80;;;1.13;;
68921;SDS011;55959;51.244;5.724;2023-08-21T11:30:27;2.95;;;1.30;;
68921;SDS011;55959;51.244;5.724;2023-08-21T11:33:09;2.35;;;1.13;;
68921;SDS011;55959;51.244;5.724;2023-08-21T11:35:37;2.08;;;1.10;;
68921;SDS011;55959;51.244;5.724;2023-08-21T11:38:04;2.45;;;1.15;;
68921;SDS011;55959;51.244;5.724;2023-08-21T11:40:34;2.47;;;1.02;;
68921;SDS011;55959;51.244;5.724;2023-08-21T11:43:00;2.83;;;1.20;;
68921;SDS011;55959;51.244;5.724;2023-08-21T11:45:27;1.92;;;0.95;;
68921;SDS011;55959;51.244;5.724;2023-08-21T11:47:55;4.30;;;1.20;;
68921;SDS011;55959;51.244;5.724;2023-08-21T11:50:21;2.33;;;1.00;;
68921;SDS011;55959;51.244;5.724;2023-08-21T11:52:47;1.60;;;1.17;;
68921;SDS011;55959;51.244;5.724;2023-08-21T11:55:17;1.63;;;0.75;;
68921;SDS011;55959;51.244;5.724;2023-08-21T11:57:50;2.85;;;1.10;;
68921;SDS011;55959;51.244;5.724;2023-08-21T12:00:17;1.40;;;0.88;;
68921;SDS011;55959;51.244;5.724;2023-08-21T12:02:49;2.83;;;1.40;;
68921;SDS011;55959;51.244;5.724;2023-08-21T12:05:23;3.08;;;1.48;;
68921;SDS011;55959;51.244;5.724;2023-08-21T12:07:49;3.33;;;1.02;;
68921;SDS011;55959;51.244;5.724;2023-08-21T12:10:21;2.92;;;1.10;;
68921;SDS011;55959;51.244;5.724;2023-08-21T12:12:54;3.25;;;1.35;;
68921;SDS011;55959;51.244;5.724;2023-08-21T12:15:20;2.00;;;1.17;;
68921;SDS011;55959;51.244;5.724;2023-08-21T12:17:46;2.10;;;1.15;;
68921;SDS011;55959;51.244;5.724;2023-08-21T12:20:12;2.13;;;1.10;;
68921;SDS011;55959;51.244;5.724;2023-08-21T12:22:39;1.40;;;1.02;;
68921;SDS011;55959;51.244;5.724;2023-08-21T12:25:07;1.23;;;0.90;;
68921;SDS011;55959;51.244;5.724;2023-08-21T12:27:33;3.70;;;1.10;;
68921;SDS011;55959;51.244;5.724;2023-08-21T12:29:59;3.17;;;1.27;;
68921;SDS011;55959;51.244;5.724;2023-08-21T12:32:26;2.80;;;1.13;;
68921;SDS011;55959;51.244;5.724;2023-08-21T12:34:52;2.08;;;1.30;;
68921;SDS011;55959;51.244;5.724;2023-08-21T12:37:18;2.60;;;1.00;;
68921;SDS011;55959;51.244;5.724;2023-08-21T12:39:43;1.88;;;1.15;;
68921;SDS011;55959;51.244;5.724;2023-08-21T12:42:09;1.60;;;1.10;;
68921;SDS011;55959;51.244;5.724;2023-08-21T12:44:35;2.58;;;1.52;;
68921;SDS011;55959;51.244;5.724;2023-08-21T12:47:01;2.60;;;0.90;;
68921;SDS011;55959;51.244;5.724;2023-08-21T12:49:27;2.15;;;0.90;;
68921;SDS011;55959;51.244;5.724;2023-08-21T12:51:53;2.70;;;1.20;;
68921;SDS011;55959;51.244;5.724;2023-08-21T12:54:20;1.15;;;0.90;;
68921;SDS011;55959;51.244;5.724;2023-08-21T12:56:46;1.95;;;1.20;;
68921;SDS011;55959;51.244;5.724;2023-08-21T12:59:12;1.50;;;0.80;;
68921;SDS011;55959;51.244;5.724;2023-08-21T13:01:38;3.15;;;1.10;;
68921;SDS011;55959;51.244;5.724;2023-08-21T13:04:04;3.15;;;1.00;;
68921;SDS011;55959;51.244;5.724;2023-08-21T13:06:30;2.63;;;1.05;;
68921;SDS011;55959;51.244;5.724;2023-08-21T13:08:56;2.00;;;1.08;;
68921;SDS011;55959;51.244;5.724;2023-08-21T13:11:22;3.20;;;1.13;;
68921;SDS011;55959;51.244;5.724;2023-08-21T13:13:48;1.38;;;0.90;;
68921;SDS011;55959;51.244;5.724;2023-08-21T13:16:14;2.53;;;1.08;;
68921;SDS011;55959;51.244;5.724;2023-08-21T13:18:39;2.38;;;1.17;;
68921;SDS011;55959;51.244;5.724;2023-08-21T13:21:05;2.50;;;1.00;;
68921;SDS011;55959;51.244;5.724;2023-08-21T13:23:31;1.83;;;0.93;;
68921;SDS011;55959;51.244;5.724;2023-08-21T13:25:59;2.75;;;1.40;;
68921;SDS011;55959;51.244;5.724;2023-08-21T13:28:26;2.97;;;1.40;;
68921;SDS011;55959;51.244;5.724;2023-08-21T13:30:52;1.95;;;1.25;;
68921;SDS011;55959;51.244;5.724;2023-08-21T13:33:18;3.05;;;1.55;;
68921;SDS011;55959;51.244;5.724;2023-08-21T13:35:44;3.40;;;1.58;;
68921;SDS011;55959;51.244;5.724;2023-08-21T13:38:12;2.75;;;1.40;;
68921;SDS011;55959;51.244;5.724;2023-08-21T13:40:38;3.15;;;1.60;;
68921;SDS011;55959;51.244;5.724;2023-08-21T13:43:05;1.98;;;1.20;;
68921;SDS011;55959;51.244;5.724;2023-08-21T13:45:32;1.73;;;1.20;;
68921;SDS011;55959;51.244;5.724;2023-08-21T13:47:58;1.40;;;1.10;;
68921;SDS011;55959;51.244;5.724;2023-08-21T13:50:24;1.95;;;1.02;;
68921;SDS011;55959;51.244;5.724;2023-08-21T13:52:50;1.10;;;1.00;;
68921;SDS011;55959;51.244;5.724;2023-08-21T13:55:16;1.75;;;1.15;;
68921;SDS011;55959;51.244;5.724;2023-08-21T13:57:42;2.65;;;1.20;;
68921;SDS011;55959;51.244;5.724;2023-08-21T14:00:10;2.97;;;1.15;;
68921;SDS011;55959;51.244;5.724;2023-08-21T14:02:37;1.70;;;1.10;;
68921;SDS011;55959;51.244;5.724;2023-08-21T14:05:04;2.38;;;0.90;;
68921;SDS011;55959;51.244;5.724;2023-08-21T14:07:30;1.77;;;0.93;;
68921;SDS011;55959;51.244;5.724;2023-08-21T14:09:57;2.55;;;1.00;;
68921;SDS011;55959;51.244;5.724;2023-08-21T14:12:23;1.45;;;0.80;;
68921;SDS011;55959;51.244;5.724;2023-08-21T14:14:48;2.42;;;1.20;;
68921;SDS011;55959;51.244;5.724;2023-08-21T14:17:14;2.53;;;1.17;;
68921;SDS011;55959;51.244;5.724;2023-08-21T14:19:40;1.58;;;0.88;;
68921;SDS011;55959;51.244;5.724;2023-08-21T14:22:06;2.22;;;1.30;;
68921;SDS011;55959;51.244;5.724;2023-08-21T14:24:32;2.75;;;1.00;;
68921;SDS011;55959;51.244;5.724;2023-08-21T14:26:58;1.52;;;1.00;;
68921;SDS011;55959;51.244;5.724;2023-08-21T14:29:24;2.08;;;1.08;;
68921;SDS011;55959;51.244;5.724;2023-08-21T14:31:50;1.98;;;0.93;;
68921;SDS011;55959;51.244;5.724;2023-08-21T14:34:18;1.58;;;0.88;;
68921;SDS011;55959;51.244;5.724;2023-08-21T14:36:45;1.65;;;1.02;;
68921;SDS011;55959;51.244;5.724;2023-08-21T14:39:13;2.03;;;1.05;;
68921;SDS011;55959;51.244;5.724;2023-08-21T14:41:41;2.17;;;1.15;;
68921;SDS011;55959;51.244;5.724;2023-08-21T14:44:07;1.40;;;1.10;;
68921;SDS011;55959;51.244;5.724;2023-08-21T14:46:33;1.55;;;0.80;;
68921;SDS011;55959;51.244;5.724;2023-08-21T14:48:59;2.50;;;1.20;;
68921;SDS011;55959;51.244;5.724;2023-08-21T14:51:25;2.67;;;1.10;;
68921;SDS011;55959;51.244;5.724;2023-08-21T14:53:52;2.50;;;1.38;;
68921;SDS011;55959;51.244;5.724;2023-08-21T14:56:19;2.55;;;1.20;;
68921;SDS011;55959;51.244;5.724;2023-08-21T14:58:46;2.78;;;0.98;;
68921;SDS011;55959;51.244;5.724;2023-08-21T15:01:12;1.90;;;1.25;;
68921;SDS011;55959;51.244;5.724;2023-08-21T15:03:38;1.48;;;1.00;;